createdAt,value
2018-08-25T00:01:26.982Z,17.20
2018-08-25T00:03:55.174Z,17.20
2018-08-25T00:06:23.396Z,17.20
2018-08-25T00:08:51.593Z,17.20
2018-08-25T00:11:19.788Z,17.20
2018-08-25T00:13:47.967Z,17.20
2018-08-25T00:16:16.173Z,17.20
2018-08-25T00:18:44.459Z,17.20
2018-08-25T00:21:12.681Z,17.20
2018-08-25T00:23:41.089Z,17.30
2018-08-25T00:26:09.314Z,17.30
2018-08-25T00:28:37.584Z,17.30
2018-08-25T00:31:11.105Z,17.20
2018-08-25T00:33:39.346Z,17.20
2018-08-25T00:36:07.704Z,17.20
2018-08-25T00:38:35.907Z,17.20
2018-08-25T00:41:04.101Z,17.20
2018-08-25T00:43:32.301Z,17.10
2018-08-25T00:46:00.817Z,17.10
2018-08-25T00:48:29.047Z,17.10
2018-08-25T00:50:57.289Z,17.10
2018-08-25T00:53:25.529Z,17.10
2018-08-25T00:55:54.674Z,17.10
2018-08-25T00:58:22.936Z,17.10
2018-08-25T01:00:51.223Z,17.00
2018-08-25T01:03:19.404Z,17.00
2018-08-25T01:05:47.625Z,17.00
2018-08-25T01:08:15.875Z,17.00
2018-08-25T01:10:44.083Z,16.90
2018-08-25T01:13:12.297Z,16.90
2018-08-25T01:15:40.581Z,16.90
2018-08-25T01:18:08.803Z,16.90
2018-08-25T01:20:37.082Z,16.80
2018-08-25T01:23:05.351Z,16.80
2018-08-25T01:25:33.559Z,16.70
2018-08-25T01:28:01.834Z,16.70
2018-08-25T01:30:30.128Z,16.70
2018-08-25T01:32:58.344Z,16.70
2018-08-25T01:35:26.559Z,16.60
2018-08-25T01:37:54.884Z,16.60
2018-08-25T01:40:23.075Z,16.60
2018-08-25T01:42:51.275Z,16.60
2018-08-25T01:45:19.459Z,16.50
2018-08-25T01:47:47.657Z,16.50
2018-08-25T01:50:15.839Z,16.50
2018-08-25T01:52:44.028Z,16.40
2018-08-25T01:55:12.213Z,16.40
2018-08-25T01:57:40.431Z,16.40
2018-08-25T02:00:08.731Z,16.30
2018-08-25T02:02:36.957Z,16.30
2018-08-25T02:05:05.161Z,16.20
2018-08-25T02:07:33.701Z,16.10
2018-08-25T02:10:01.918Z,16.10
2018-08-25T02:12:30.275Z,16.00
2018-08-25T02:14:58.457Z,16.00
2018-08-25T02:17:26.639Z,15.90
2018-08-25T02:19:54.843Z,15.80
2018-08-25T02:22:23.025Z,15.70
2018-08-25T02:24:51.213Z,15.70
2018-08-25T02:27:19.432Z,15.60
2018-08-25T02:29:47.681Z,15.60
2018-08-25T02:32:15.873Z,15.50
2018-08-25T02:34:44.087Z,15.50
2018-08-25T02:37:12.324Z,15.40
2018-08-25T02:39:40.507Z,15.40
2018-08-25T02:42:08.703Z,15.30
2018-08-25T02:44:36.927Z,15.30
2018-08-25T02:47:05.233Z,15.30
2018-08-25T02:49:33.526Z,15.20
2018-08-25T02:52:01.790Z,15.20
2018-08-25T02:54:29.994Z,15.20
2018-08-25T02:56:58.188Z,15.20
2018-08-25T02:59:26.488Z,15.30
2018-08-25T03:01:54.752Z,15.30
2018-08-25T03:04:22.924Z,15.30
2018-08-25T03:06:51.135Z,15.30
2018-08-25T03:09:19.320Z,15.20
2018-08-25T03:11:47.534Z,15.30
2018-08-25T03:14:15.740Z,15.30
2018-08-25T03:16:43.929Z,15.20
2018-08-25T03:19:12.210Z,15.20
2018-08-25T03:21:40.402Z,15.20
2018-08-25T03:24:08.637Z,15.20
2018-08-25T03:26:36.826Z,15.10
2018-08-25T03:29:05.118Z,15.10
2018-08-25T03:31:33.306Z,15.10
2018-08-25T03:34:01.538Z,15.10
2018-08-25T03:36:29.737Z,15.10
2018-08-25T03:38:57.916Z,15.10
2018-08-25T03:41:26.103Z,15.10
2018-08-25T03:43:54.302Z,15.10
2018-08-25T03:46:22.496Z,15.10
2018-08-25T03:48:50.741Z,15.00
2018-08-25T03:51:18.942Z,15.00
2018-08-25T03:53:47.330Z,15.00
2018-08-25T03:56:15.510Z,15.00
2018-08-25T03:58:43.716Z,15.00
2018-08-25T04:01:12.028Z,14.90
2018-08-25T04:03:40.225Z,14.90
2018-08-25T04:06:08.426Z,14.90
2018-08-25T04:08:36.734Z,14.90
2018-08-25T04:11:05.046Z,14.90
2018-08-25T04:13:33.237Z,14.80
2018-08-25T04:16:01.442Z,14.80
2018-08-25T04:18:29.662Z,14.80
2018-08-25T04:20:57.844Z,14.90
2018-08-25T04:23:26.044Z,14.90
2018-08-25T04:25:54.258Z,14.90
2018-08-25T04:28:22.471Z,14.90
2018-08-25T04:30:50.693Z,14.90
2018-08-25T04:33:18.926Z,14.90
2018-08-25T04:35:47.102Z,14.90
2018-08-25T04:38:15.396Z,14.90
2018-08-25T04:40:43.646Z,15.00
2018-08-25T04:43:11.843Z,15.00
2018-08-25T04:45:40.070Z,15.00
2018-08-25T04:48:08.338Z,15.10
2018-08-25T04:50:36.528Z,15.10
2018-08-25T04:53:05.030Z,15.10
2018-08-25T04:55:33.239Z,15.20
2018-08-25T04:58:01.477Z,15.20
2018-08-25T05:00:29.671Z,15.30
2018-08-25T05:02:57.882Z,15.30
2018-08-25T05:05:26.087Z,15.40
2018-08-25T05:07:54.360Z,15.40
2018-08-25T05:10:22.546Z,15.50
2018-08-25T05:12:50.727Z,15.50
2018-08-25T05:15:18.933Z,15.50
2018-08-25T05:17:47.129Z,15.60
2018-08-25T05:20:15.389Z,15.60
2018-08-25T05:22:43.589Z,15.60
2018-08-25T05:25:11.789Z,15.70
2018-08-25T05:27:39.984Z,15.70
2018-08-25T05:30:08.442Z,15.70
2018-08-25T05:32:36.680Z,15.80
2018-08-25T05:35:05.437Z,15.80
2018-08-25T05:37:33.652Z,15.80
2018-08-25T05:40:01.879Z,15.90
2018-08-25T05:42:30.091Z,15.90
2018-08-25T05:44:58.273Z,15.90
2018-08-25T05:47:26.479Z,15.90
2018-08-25T05:49:54.703Z,15.90
2018-08-25T05:52:22.879Z,16.00
2018-08-25T05:54:51.105Z,15.90
2018-08-25T05:57:19.285Z,16.00
2018-08-25T05:59:47.478Z,16.00
2018-08-25T06:02:15.683Z,16.00
2018-08-25T06:04:43.874Z,16.00
2018-08-25T06:07:12.095Z,16.10
2018-08-25T06:09:40.283Z,16.10
2018-08-25T06:12:08.767Z,16.00
2018-08-25T06:14:36.949Z,16.10
2018-08-25T06:17:05.192Z,16.00
2018-08-25T06:19:33.403Z,16.00
2018-08-25T06:22:01.603Z,16.00
2018-08-25T06:24:29.817Z,15.90
2018-08-25T06:26:58.026Z,15.90
2018-08-25T06:29:26.225Z,15.90
2018-08-25T06:31:54.414Z,15.90
2018-08-25T06:34:22.621Z,15.90
2018-08-25T06:36:50.811Z,15.90
2018-08-25T06:39:18.993Z,16.00
2018-08-25T06:41:47.207Z,16.00
2018-08-25T06:44:15.396Z,16.00
2018-08-25T06:46:43.596Z,16.00
2018-08-25T06:49:11.828Z,16.00
2018-08-25T06:51:40.063Z,16.00
2018-08-25T06:54:08.297Z,16.00
2018-08-25T06:56:36.518Z,16.10
2018-08-25T06:59:04.745Z,16.10
2018-08-25T07:01:32.937Z,16.10
2018-08-25T07:04:01.465Z,16.10
2018-08-25T07:06:29.739Z,16.20
2018-08-25T07:08:58.022Z,16.10
2018-08-25T07:11:26.208Z,16.10
2018-08-25T07:13:54.415Z,16.00
2018-08-25T07:16:22.633Z,16.00
2018-08-25T07:18:50.862Z,16.00
2018-08-25T07:21:19.031Z,15.90
2018-08-25T07:23:47.239Z,15.80
2018-08-25T07:26:15.522Z,15.80
2018-08-25T07:28:43.681Z,15.70
2018-08-25T07:31:11.883Z,15.70
2018-08-25T07:33:40.117Z,15.70
2018-08-25T07:36:08.523Z,15.70
2018-08-25T07:38:36.795Z,15.80
2018-08-25T07:41:05.028Z,15.90
2018-08-25T07:43:33.201Z,15.90
2018-08-25T07:46:01.403Z,15.90
2018-08-25T07:48:29.655Z,16.00
2018-08-25T07:50:58.048Z,16.00
2018-08-25T07:53:26.231Z,16.10
2018-08-25T07:55:54.427Z,16.10
2018-08-25T07:58:22.733Z,16.20
2018-08-25T08:00:50.923Z,16.20
2018-08-25T08:03:19.131Z,16.20
2018-08-25T08:05:47.473Z,16.20
2018-08-25T08:08:15.732Z,16.20
2018-08-25T08:10:43.919Z,16.20
2018-08-25T08:13:12.111Z,16.30
2018-08-25T08:15:40.319Z,16.30
2018-08-25T08:18:08.509Z,16.30
2018-08-25T08:20:36.718Z,16.30
2018-08-25T08:23:04.925Z,16.30
2018-08-25T08:25:33.103Z,16.30
2018-08-25T08:28:01.409Z,16.40
2018-08-25T08:30:29.671Z,16.40
2018-08-25T08:32:57.885Z,16.50
2018-08-25T08:35:26.073Z,16.50
2018-08-25T08:37:54.307Z,16.50
2018-08-25T08:40:22.521Z,16.50
2018-08-25T08:42:50.717Z,16.50
2018-08-25T08:45:18.958Z,16.50
2018-08-25T08:47:47.135Z,16.60
2018-08-25T08:50:15.350Z,16.60
2018-08-25T08:52:43.547Z,16.80
2018-08-25T08:55:11.764Z,17.00
2018-08-25T08:57:39.994Z,17.30
2018-08-25T09:00:08.322Z,17.70
2018-08-25T09:02:36.577Z,19.10
2018-08-25T09:05:05.074Z,20.40
2018-08-25T09:07:33.296Z,20.30
2018-08-25T09:10:01.481Z,20.30
2018-08-25T09:12:29.674Z,20.10
2018-08-25T09:14:57.871Z,19.90
2018-08-25T09:17:26.085Z,20.10
2018-08-25T09:19:54.304Z,20.60
2018-08-25T09:22:22.522Z,21.30
2018-08-25T09:24:50.733Z,21.70
2018-08-25T09:27:18.980Z,22.10
2018-08-25T09:29:47.251Z,21.80
2018-08-25T09:32:15.482Z,21.70
2018-08-25T09:34:43.671Z,22.50
2018-08-25T09:37:11.891Z,23.10
2018-08-25T09:39:40.149Z,23.40
2018-08-25T09:42:08.310Z,23.90
2018-08-25T09:44:36.545Z,24.20
2018-08-25T09:47:04.905Z,23.90
2018-08-25T09:49:33.002Z,23.90
2018-08-25T09:52:01.245Z,23.80
2018-08-25T09:54:29.428Z,24.10
2018-08-25T09:56:57.756Z,23.80
2018-08-25T09:59:25.974Z,23.20
2018-08-25T10:01:59.686Z,23.00
2018-08-25T10:04:28.355Z,23.10
2018-08-25T10:06:56.578Z,22.50
2018-08-25T10:09:24.814Z,21.90
2018-08-25T10:11:53.004Z,21.30
2018-08-25T10:14:21.272Z,20.70
2018-08-25T10:16:49.526Z,20.40
2018-08-25T10:19:17.736Z,21.30
2018-08-25T10:21:45.985Z,22.20
2018-08-25T10:24:14.209Z,23.20
2018-08-25T10:26:42.442Z,24.20
2018-08-25T10:29:11.012Z,25.00
2018-08-25T10:31:39.141Z,25.70
2018-08-25T10:34:07.412Z,26.20
2018-08-25T10:36:35.648Z,26.50
2018-08-25T10:39:05.728Z,26.90
2018-08-25T10:41:33.989Z,27.30
2018-08-25T10:44:02.236Z,27.70
2018-08-25T10:46:31.322Z,28.10
2018-08-25T10:48:59.522Z,28.40
2018-08-25T10:51:27.728Z,28.50
2018-08-25T10:53:55.987Z,27.90
2018-08-25T10:56:24.132Z,27.60
2018-08-25T10:58:52.322Z,27.50
2018-08-25T11:01:23.461Z,27.10
2018-08-25T11:03:51.676Z,27.50
2018-08-25T11:06:19.894Z,28.00
2018-08-25T11:08:48.199Z,28.20
2018-08-25T11:11:16.480Z,27.80
2018-08-25T11:13:44.648Z,26.40
2018-08-25T11:16:12.868Z,26.30
2018-08-25T11:18:41.206Z,26.60
2018-08-25T11:21:09.412Z,26.00
2018-08-25T11:23:37.649Z,25.80
2018-08-25T11:26:05.856Z,26.40
2018-08-25T11:28:34.080Z,26.50
2018-08-25T11:31:02.275Z,26.80
2018-08-25T11:33:30.463Z,27.40
2018-08-25T11:35:58.677Z,27.40
2018-08-25T11:38:26.992Z,27.00
2018-08-25T11:40:55.223Z,27.30
2018-08-25T11:43:23.404Z,28.00
2018-08-25T11:45:51.607Z,28.30
2018-08-25T11:48:19.923Z,28.40
2018-08-25T11:50:48.123Z,27.60
2018-08-25T11:53:16.318Z,26.40
2018-08-25T11:55:44.530Z,25.50
2018-08-25T11:58:12.754Z,25.80
2018-08-25T12:00:40.968Z,26.80
2018-08-25T12:03:09.174Z,27.70
2018-08-25T12:05:37.352Z,28.20
2018-08-25T12:08:05.642Z,28.60
2018-08-25T12:10:33.852Z,29.30
2018-08-25T12:13:02.065Z,29.40
2018-08-25T12:15:30.268Z,29.80
2018-08-25T12:17:58.632Z,29.50
2018-08-25T12:20:26.996Z,28.40
2018-08-25T12:22:55.186Z,27.20
2018-08-25T12:25:23.420Z,26.10
2018-08-25T12:27:51.682Z,25.20
2018-08-25T12:30:19.883Z,24.70
2018-08-25T12:32:48.074Z,24.30
2018-08-25T12:35:16.296Z,24.10
2018-08-25T12:37:44.516Z,25.00
2018-08-25T12:40:12.768Z,26.00
2018-08-25T12:42:40.973Z,27.10
2018-08-25T12:45:09.191Z,27.20
2018-08-25T12:47:37.438Z,26.60
2018-08-25T12:50:05.706Z,26.00
2018-08-25T12:52:33.932Z,25.90
2018-08-25T12:55:02.139Z,25.90
2018-08-25T12:57:30.416Z,25.70
2018-08-25T12:59:58.643Z,25.30
2018-08-25T13:02:27.125Z,24.90
2018-08-25T13:04:55.324Z,24.30
2018-08-25T13:07:23.600Z,23.70
2018-08-25T13:09:51.787Z,23.20
2018-08-25T13:12:20.007Z,22.90
2018-08-25T13:14:48.331Z,22.80
2018-08-25T13:17:16.406Z,22.70
2018-08-25T13:19:44.630Z,22.90
2018-08-25T13:22:12.813Z,23.50
2018-08-25T13:24:41.083Z,24.00
2018-08-25T13:27:09.289Z,23.80
2018-08-25T13:29:37.494Z,23.70
2018-08-25T13:32:05.713Z,23.60
2018-08-25T13:34:33.871Z,23.40
2018-08-25T13:37:02.107Z,23.20
2018-08-25T13:39:30.308Z,23.20
2018-08-25T13:41:58.535Z,24.10
2018-08-25T13:44:26.706Z,25.20
2018-08-25T13:46:54.915Z,25.20
2018-08-25T13:49:23.177Z,24.80
2018-08-25T13:51:51.363Z,24.30
2018-08-25T13:54:19.579Z,23.70
2018-08-25T13:56:47.811Z,23.40
2018-08-25T13:59:16.003Z,23.00
2018-08-25T14:01:44.191Z,22.80
2018-08-25T14:04:12.391Z,23.00
2018-08-25T14:06:40.617Z,24.20
2018-08-25T14:09:08.921Z,25.00
2018-08-25T14:11:37.271Z,24.80
2018-08-25T14:14:05.743Z,24.70
2018-08-25T14:16:33.958Z,24.30
2018-08-25T14:19:02.574Z,23.70
2018-08-25T14:21:30.749Z,23.60
2018-08-25T14:23:58.963Z,23.50
2018-08-25T14:26:27.152Z,24.10
2018-08-25T14:28:55.492Z,25.50
2018-08-25T14:31:23.910Z,25.60
2018-08-25T14:33:52.091Z,25.20
2018-08-25T14:36:20.303Z,24.70
2018-08-25T14:38:48.539Z,24.20
2018-08-25T14:41:16.730Z,24.60
2018-08-25T14:43:44.938Z,25.00
2018-08-25T14:46:13.201Z,25.20
2018-08-25T14:48:41.381Z,25.00
2018-08-25T14:51:09.571Z,24.90
2018-08-25T14:53:38.073Z,24.40
2018-08-25T14:56:06.254Z,24.00
2018-08-25T14:58:34.534Z,23.60
2018-08-25T15:01:02.718Z,23.30
2018-08-25T15:03:30.930Z,22.90
2018-08-25T15:05:59.171Z,22.70
2018-08-25T15:08:27.453Z,22.70
2018-08-25T15:10:55.641Z,23.20
2018-08-25T15:13:23.991Z,23.30
2018-08-25T15:15:52.024Z,23.60
2018-08-25T15:18:20.239Z,23.60
2018-08-25T15:20:48.452Z,23.60
2018-08-25T15:23:16.647Z,23.30
2018-08-25T15:25:44.865Z,23.10
2018-08-25T15:28:13.126Z,23.10
2018-08-25T15:30:41.335Z,23.00
2018-08-25T15:33:09.523Z,23.30
2018-08-25T15:35:37.726Z,23.70
2018-08-25T15:38:05.991Z,24.10
2018-08-25T15:40:34.180Z,24.50
2018-08-25T15:43:02.387Z,24.90
2018-08-25T15:45:30.608Z,24.80
2018-08-25T15:47:58.994Z,24.30
2018-08-25T15:50:27.369Z,23.80
2018-08-25T15:52:55.626Z,23.50
2018-08-25T15:55:23.792Z,23.30
2018-08-25T15:57:52.107Z,23.00
2018-08-25T16:00:20.264Z,22.60
2018-08-25T16:02:48.480Z,22.40
2018-08-25T16:05:16.690Z,22.10
2018-08-25T16:07:44.873Z,22.00
2018-08-25T16:10:13.152Z,21.90
2018-08-25T16:12:41.358Z,21.80
2018-08-25T16:15:09.585Z,21.60
2018-08-25T16:17:37.867Z,21.60
2018-08-25T16:20:06.328Z,21.60
2018-08-25T16:22:34.360Z,21.60
2018-08-25T16:25:02.549Z,21.70
2018-08-25T16:27:30.775Z,21.70
2018-08-25T16:29:58.981Z,21.70
2018-08-25T16:32:27.176Z,21.50
2018-08-25T16:34:55.366Z,21.30
2018-08-25T16:37:23.576Z,21.20
2018-08-25T16:39:53.024Z,21.10
2018-08-25T16:42:21.209Z,21.00
2018-08-25T16:44:49.441Z,20.90
2018-08-25T16:47:17.622Z,20.90
2018-08-25T16:49:45.852Z,20.90
2018-08-25T16:52:14.026Z,20.80
2018-08-25T16:54:42.406Z,20.70
2018-08-25T16:57:10.684Z,20.60
2018-08-25T16:59:39.172Z,20.60
2018-08-25T17:02:07.732Z,20.50
2018-08-25T17:04:35.892Z,20.50
2018-08-25T17:07:04.107Z,20.40
2018-08-25T17:09:32.301Z,20.30
2018-08-25T17:12:00.526Z,20.20
2018-08-25T17:14:28.710Z,20.10
2018-08-25T17:16:56.926Z,20.00
2018-08-25T17:19:25.178Z,20.00
2018-08-25T17:21:53.373Z,19.90
2018-08-25T17:24:21.590Z,19.80
2018-08-25T17:26:49.857Z,19.80
2018-08-25T17:29:17.995Z,19.80
2018-08-25T17:31:46.219Z,19.80
2018-08-25T17:34:14.424Z,19.70
2018-08-25T17:36:42.884Z,19.70
2018-08-25T17:39:11.708Z,19.70
2018-08-25T17:41:40.214Z,19.70
2018-08-25T17:44:08.788Z,19.70
2018-08-25T17:46:37.004Z,19.70
2018-08-25T17:49:05.560Z,19.60
2018-08-25T17:51:33.803Z,19.60
2018-08-25T17:54:02.057Z,19.60
2018-08-25T17:56:30.252Z,19.60
2018-08-25T17:58:58.537Z,19.60
2018-08-25T18:01:26.735Z,19.50
2018-08-25T18:03:55.012Z,19.50
2018-08-25T18:06:23.186Z,19.40
2018-08-25T18:08:51.390Z,19.40
2018-08-25T18:11:19.622Z,19.40
2018-08-25T18:13:47.839Z,19.30
2018-08-25T18:16:16.056Z,19.20
2018-08-25T18:18:44.236Z,19.00
2018-08-25T18:21:12.712Z,18.70
2018-08-25T18:23:41.384Z,18.40
2018-08-25T18:26:09.931Z,18.20
2018-08-25T18:28:38.132Z,18.00
2018-08-25T18:31:06.327Z,17.80
2018-08-25T18:33:34.536Z,17.60
2018-08-25T18:36:02.744Z,17.50
2018-08-25T18:38:30.948Z,17.50
2018-08-25T18:40:59.136Z,17.50
2018-08-25T18:43:27.364Z,17.40
2018-08-25T18:45:55.572Z,17.30
2018-08-25T18:48:23.885Z,17.20
2018-08-25T18:50:52.036Z,17.20
2018-08-25T18:53:20.256Z,17.20
2018-08-25T18:55:48.492Z,17.20
2018-08-25T18:58:17.218Z,17.10
2018-08-25T19:00:45.445Z,17.10
2018-08-25T19:03:14.415Z,17.10
2018-08-25T19:05:42.632Z,17.10
2018-08-25T19:08:10.909Z,17.10
2018-08-25T19:10:39.101Z,17.20
2018-08-25T19:13:07.315Z,17.20
2018-08-25T19:15:35.494Z,17.20
2018-08-25T19:18:03.743Z,17.10
2018-08-25T19:20:31.941Z,17.10
2018-08-25T19:23:00.132Z,17.10
2018-08-25T19:25:28.363Z,17.10
2018-08-25T19:27:56.753Z,17.00
2018-08-25T19:30:24.923Z,17.00
2018-08-25T19:32:53.123Z,16.90
2018-08-25T19:35:21.380Z,16.90
2018-08-25T19:37:49.573Z,16.80
2018-08-25T19:40:17.758Z,16.80
2018-08-25T19:42:45.969Z,16.80
2018-08-25T19:45:14.167Z,16.70
2018-08-25T19:47:42.413Z,16.70
2018-08-25T19:50:10.622Z,16.60
2018-08-25T19:52:38.811Z,16.50
2018-08-25T19:55:07.039Z,16.40
2018-08-25T19:57:35.241Z,16.40
2018-08-25T20:00:03.492Z,16.30
2018-08-25T20:02:31.704Z,16.30
2018-08-25T20:04:59.939Z,16.20
2018-08-25T20:07:28.117Z,16.10
2018-08-25T20:09:56.701Z,16.00
2018-08-25T20:12:24.891Z,16.00
2018-08-25T20:14:53.405Z,15.90
2018-08-25T20:17:21.635Z,15.90
2018-08-25T20:19:49.875Z,15.80
2018-08-25T20:22:18.083Z,15.70
2018-08-25T20:24:46.313Z,15.70
2018-08-25T20:27:14.517Z,15.60
2018-08-25T20:29:42.703Z,15.60
2018-08-25T20:32:10.922Z,15.50
2018-08-25T20:34:39.113Z,15.50
2018-08-25T20:37:07.331Z,15.40
2018-08-25T20:39:35.597Z,15.40
2018-08-25T20:42:03.897Z,15.30
2018-08-25T20:44:32.082Z,15.20
2018-08-25T20:47:00.271Z,15.20
2018-08-25T20:49:28.497Z,15.20
2018-08-25T20:51:56.706Z,15.10
2018-08-25T20:54:24.910Z,15.10
2018-08-25T20:56:53.138Z,15.10
2018-08-25T20:59:21.335Z,15.10
2018-08-25T21:01:49.552Z,15.10
2018-08-25T21:04:17.762Z,15.10
2018-08-25T21:06:46.236Z,15.10
2018-08-25T21:09:14.371Z,15.10
2018-08-25T21:11:42.553Z,15.20
2018-08-25T21:14:10.758Z,15.10
2018-08-25T21:16:38.940Z,15.20
2018-08-25T21:19:07.226Z,15.20
2018-08-25T21:21:35.983Z,15.20
2018-08-25T21:24:04.165Z,15.20
2018-08-25T21:26:32.395Z,15.20
2018-08-25T21:29:00.646Z,15.20
2018-08-25T21:31:28.899Z,15.20
2018-08-25T21:33:57.182Z,15.10
2018-08-25T21:36:25.369Z,15.00
2018-08-25T21:38:53.942Z,14.90
2018-08-25T21:41:22.189Z,14.90
2018-08-25T21:43:50.375Z,14.80
2018-08-25T21:46:18.611Z,14.70
2018-08-25T21:48:46.896Z,14.70
2018-08-25T21:51:15.141Z,14.70
2018-08-25T21:53:43.331Z,14.60
2018-08-25T21:56:11.545Z,14.60
2018-08-25T21:58:39.833Z,14.50
2018-08-25T22:01:08.160Z,14.50
2018-08-25T22:03:36.309Z,14.40
2018-08-25T22:06:04.522Z,14.40
2018-08-25T22:08:32.787Z,14.40
2018-08-25T22:11:01.072Z,14.40
2018-08-25T22:13:29.211Z,14.40
2018-08-25T22:18:40.121Z,14.40
2018-08-25T22:21:08.423Z,14.40
2018-08-25T22:23:36.585Z,14.40
2018-08-25T22:26:04.804Z,14.40
2018-08-25T22:28:33.056Z,14.30
2018-08-25T22:31:01.275Z,14.20
2018-08-25T22:33:29.471Z,14.20
2018-08-25T22:35:57.729Z,14.20
2018-08-25T22:38:25.977Z,14.20
2018-08-25T22:40:54.174Z,14.20
2018-08-25T22:43:22.403Z,14.30
2018-08-25T22:45:50.606Z,14.30
2018-08-25T22:48:18.880Z,14.30
2018-08-25T22:50:47.068Z,14.40
2018-08-25T22:53:15.256Z,14.30
2018-08-25T22:55:43.456Z,14.30
2018-08-25T22:58:11.714Z,14.30
2018-08-25T23:00:39.918Z,14.30
2018-08-25T23:03:08.102Z,14.20
2018-08-25T23:05:36.318Z,14.20
2018-08-25T23:08:04.592Z,14.10
2018-08-25T23:10:32.838Z,14.10
2018-08-25T23:13:01.034Z,14.10
2018-08-25T23:15:29.234Z,14.10
2018-08-25T23:17:57.641Z,14.10
2018-08-25T23:20:25.859Z,14.10
2018-08-25T23:22:54.052Z,14.10
2018-08-25T23:25:22.256Z,14.10
2018-08-25T23:27:50.560Z,14.20
2018-08-25T23:30:18.809Z,14.20
2018-08-25T23:32:46.960Z,14.20
2018-08-25T23:35:15.158Z,14.20
2018-08-25T23:37:43.374Z,14.10
2018-08-25T23:40:11.572Z,14.20
2018-08-25T23:42:39.760Z,14.10
2018-08-25T23:45:07.972Z,14.10
2018-08-25T23:47:36.182Z,14.10
2018-08-25T23:50:04.434Z,14.10
2018-08-25T23:52:35.040Z,14.20
2018-08-25T23:55:04.460Z,14.10
2018-08-25T23:57:32.716Z,14.20
